createdAt,value
2023-05-08T00:00:38.765Z,7.38
2023-05-08T00:03:17.552Z,7.46
2023-05-08T00:05:44.950Z,7.47
2023-05-08T00:08:12.596Z,7.51
2023-05-08T00:10:40.002Z,7.66
2023-05-08T00:13:07.774Z,7.68
2023-05-08T00:15:36.600Z,7.78
2023-05-08T00:18:04.340Z,7.79
2023-05-08T00:20:31.784Z,7.73
2023-05-08T00:22:59.365Z,7.72
2023-05-08T00:25:27.940Z,7.66
2023-05-08T00:27:55.512Z,7.69
2023-05-08T00:30:23.316Z,7.73
2023-05-08T00:32:51.069Z,7.77
2023-05-08T00:35:18.639Z,7.79
2023-05-08T00:37:46.664Z,7.79
2023-05-08T00:40:14.547Z,7.89
2023-05-08T00:42:42.397Z,7.90
2023-05-08T00:45:10.319Z,7.94
2023-05-08T00:47:38.894Z,7.93
2023-05-08T00:50:07.328Z,7.93
2023-05-08T00:52:35.405Z,7.87
2023-05-08T00:55:06.671Z,7.95
2023-05-08T00:57:35.769Z,7.90
2023-05-08T01:00:05.744Z,7.92
2023-05-08T01:02:34.707Z,7.86
2023-05-08T01:05:03.700Z,7.89
2023-05-08T01:07:31.706Z,7.87
2023-05-08T01:09:59.053Z,7.94
2023-05-08T01:13:05.160Z,7.83
2023-05-08T01:15:43.713Z,7.88
2023-05-08T01:18:33.425Z,7.76
2023-05-08T01:21:20.219Z,7.87
2023-05-08T01:24:18.114Z,7.81
2023-05-08T01:27:03.347Z,7.85
2023-05-08T01:29:58.891Z,7.71
2023-05-08T01:32:38.600Z,7.72
2023-05-08T01:35:32.785Z,7.59
2023-05-08T01:38:40.187Z,7.61
2023-05-08T01:41:16.683Z,7.56
2023-05-08T01:44:06.334Z,7.57
2023-05-08T01:46:34.566Z,7.63
2023-05-08T01:49:33.565Z,7.59
2023-05-08T01:52:18.882Z,7.61
2023-05-08T01:54:58.885Z,7.76
2023-05-08T01:57:31.412Z,7.77
2023-05-08T02:00:03.701Z,7.75
2023-05-08T02:02:33.332Z,7.79
2023-05-08T02:05:06.037Z,7.83
2023-05-08T02:07:38.336Z,7.79
2023-05-08T02:10:08.239Z,7.82
2023-05-08T02:12:38.274Z,7.78
2023-05-08T02:15:09.424Z,7.72
2023-05-08T02:17:40.839Z,7.70
2023-05-08T02:20:15.015Z,7.55
2023-05-08T02:22:50.951Z,7.65
2023-05-08T02:25:19.718Z,7.77
2023-05-08T02:27:53.344Z,7.74
2023-05-08T02:30:24.764Z,7.72
2023-05-08T02:32:54.575Z,7.61
2023-05-08T02:35:24.665Z,7.52
2023-05-08T02:37:57.494Z,7.57
2023-05-08T02:40:29.351Z,7.52
2023-05-08T02:42:57.356Z,7.50
2023-05-08T02:45:32.747Z,7.45
2023-05-08T02:48:20.112Z,7.35
2023-05-08T02:51:03.136Z,7.38
2023-05-08T02:53:40.938Z,7.36
2023-05-08T02:56:18.908Z,7.40
2023-05-08T02:59:00.069Z,7.42
2023-05-08T03:01:45.004Z,7.39
2023-05-08T03:04:24.563Z,7.38
2023-05-08T03:06:56.953Z,7.34
2023-05-08T03:09:38.502Z,7.37
2023-05-08T03:12:16.292Z,7.30
2023-05-08T03:15:00.882Z,7.51
2023-05-08T03:17:32.655Z,7.35
2023-05-08T03:20:07.244Z,7.21
2023-05-08T03:22:38.847Z,7.37
2023-05-08T03:25:10.727Z,7.33
2023-05-08T03:27:40.153Z,7.49
2023-05-08T03:30:09.803Z,7.52
2023-05-08T03:32:39.365Z,7.42
2023-05-08T03:35:09.434Z,7.31
2023-05-08T03:37:37.649Z,7.47
2023-05-08T03:40:08.527Z,7.52
2023-05-08T03:42:37.860Z,7.50
2023-05-08T03:45:09.833Z,7.35
2023-05-08T03:47:38.300Z,7.51
2023-05-08T03:50:08.785Z,7.62
2023-05-08T03:52:36.352Z,7.56
2023-05-08T03:55:04.581Z,7.61
2023-05-08T03:57:43.799Z,7.61
2023-05-08T04:00:29.053Z,7.72
2023-05-08T04:03:26.377Z,7.71
2023-05-08T04:06:21.820Z,7.81
2023-05-08T04:09:03.348Z,7.83
2023-05-08T04:11:41.516Z,7.82
2023-05-08T04:14:16.471Z,7.84
2023-05-08T04:16:51.793Z,8.04
2023-05-08T04:19:27.904Z,8.04
2023-05-08T04:22:01.612Z,8.21
2023-05-08T04:24:32.128Z,8.13
2023-05-08T04:27:02.713Z,8.07
2023-05-08T04:29:31.242Z,8.11
2023-05-08T04:32:01.535Z,8.18
2023-05-08T04:34:29.580Z,8.02
2023-05-08T04:36:57.756Z,8.34
2023-05-08T04:39:25.126Z,8.21
2023-05-08T04:41:55.263Z,8.00
2023-05-08T04:44:22.520Z,8.14
2023-05-08T04:46:50.353Z,8.15
2023-05-08T04:49:17.689Z,8.19
2023-05-08T04:51:45.237Z,8.34
2023-05-08T04:54:12.436Z,8.38
2023-05-08T04:56:40.035Z,8.16
2023-05-08T04:59:07.493Z,8.14
2023-05-08T05:01:35.138Z,8.14
2023-05-08T05:04:02.509Z,8.12
2023-05-08T05:06:30.190Z,8.22
2023-05-08T05:08:57.523Z,8.15
2023-05-08T05:11:25.110Z,8.29
2023-05-08T05:13:52.377Z,8.36
2023-05-08T05:16:19.971Z,8.25
2023-05-08T05:18:47.557Z,8.32
2023-05-08T05:21:15.255Z,8.26
2023-05-08T05:23:42.534Z,8.26
2023-05-08T05:26:10.222Z,8.26
2023-05-08T05:28:37.688Z,8.30
2023-05-08T05:31:05.528Z,8.62
2023-05-08T05:33:32.901Z,8.82
2023-05-08T05:36:00.682Z,9.00
2023-05-08T05:38:28.007Z,9.06
2023-05-08T05:40:55.532Z,8.88
2023-05-08T05:43:22.848Z,8.80
2023-05-08T05:45:50.588Z,8.78
2023-05-08T05:48:17.862Z,8.31
2023-05-08T05:50:45.357Z,8.71
2023-05-08T05:53:13.111Z,8.86
2023-05-08T05:55:41.340Z,8.91
2023-05-08T05:58:08.843Z,9.09
2023-05-08T06:00:36.766Z,9.22
2023-05-08T06:03:05.758Z,9.21
2023-05-08T06:05:33.389Z,9.12
2023-05-08T06:08:00.695Z,8.89
2023-05-08T06:10:28.598Z,8.76
2023-05-08T06:12:55.786Z,8.83
2023-05-08T06:15:23.514Z,8.89
2023-05-08T06:17:50.890Z,9.02
2023-05-08T06:20:18.740Z,8.86
2023-05-08T06:22:46.050Z,9.14
2023-05-08T06:25:13.897Z,9.53
2023-05-08T06:27:41.394Z,9.52
2023-05-08T06:30:10.836Z,9.53
2023-05-08T06:32:38.388Z,9.54
2023-05-08T06:35:06.805Z,9.44
2023-05-08T06:37:34.068Z,9.27
2023-05-08T06:40:11.684Z,9.62
2023-05-08T06:42:40.838Z,9.83
2023-05-08T06:45:09.821Z,10.04
2023-05-08T06:47:37.761Z,9.91
2023-05-08T06:50:06.418Z,10.02
2023-05-08T06:52:33.740Z,9.83
2023-05-08T06:55:01.306Z,10.36
2023-05-08T06:57:30.347Z,10.85
2023-05-08T06:59:57.906Z,10.98
2023-05-08T07:02:25.155Z,11.26
2023-05-08T07:04:53.008Z,11.43
2023-05-08T07:07:20.354Z,11.25
2023-05-08T07:09:47.985Z,10.71
2023-05-08T07:12:16.835Z,10.36
2023-05-08T07:14:44.399Z,10.19
2023-05-08T07:17:11.680Z,10.22
2023-05-08T07:19:39.426Z,10.91
2023-05-08T07:22:06.840Z,10.65
2023-05-08T07:24:34.555Z,10.77
2023-05-08T07:27:02.234Z,10.38
2023-05-08T07:29:29.812Z,10.75
2023-05-08T07:31:57.086Z,10.59
2023-05-08T07:34:24.721Z,10.68
2023-05-08T07:36:52.081Z,10.72
2023-05-08T07:39:19.671Z,10.96
2023-05-08T07:41:49.628Z,10.95
2023-05-08T07:44:17.575Z,10.94
2023-05-08T07:46:44.880Z,10.89
2023-05-08T07:49:12.486Z,11.18
2023-05-08T07:51:40.344Z,11.54
2023-05-08T07:54:08.097Z,11.44
2023-05-08T07:56:35.603Z,10.78
2023-05-08T07:59:03.224Z,11.12
2023-05-08T08:01:30.544Z,10.73
2023-05-08T08:03:58.319Z,11.41
2023-05-08T08:06:25.741Z,12.06
2023-05-08T08:08:53.472Z,12.66
2023-05-08T08:11:20.929Z,13.10
2023-05-08T08:13:48.546Z,12.50
2023-05-08T08:16:15.904Z,12.71
2023-05-08T08:18:43.522Z,12.31
2023-05-08T08:21:11.115Z,12.11
2023-05-08T08:23:38.479Z,12.19
2023-05-08T08:26:06.656Z,12.55
2023-05-08T08:28:33.955Z,12.50
2023-05-08T08:31:01.677Z,12.81
2023-05-08T08:33:29.890Z,12.90
2023-05-08T08:35:57.584Z,12.62
2023-05-08T08:38:24.939Z,12.84
2023-05-08T08:40:53.566Z,13.00
2023-05-08T08:43:21.081Z,12.82
2023-05-08T08:45:48.831Z,12.70
2023-05-08T08:48:18.108Z,13.02
2023-05-08T08:50:53.190Z,13.43
2023-05-08T08:53:34.651Z,13.14
2023-05-08T08:56:06.580Z,13.13
2023-05-08T08:58:55.102Z,12.90
2023-05-08T09:01:26.164Z,13.71
2023-05-08T09:03:53.828Z,13.88
2023-05-08T09:06:21.756Z,14.02
2023-05-08T09:08:50.371Z,13.55
2023-05-08T09:11:18.003Z,13.23
2023-05-08T09:13:45.928Z,13.10
2023-05-08T09:16:13.680Z,14.29
2023-05-08T09:18:41.266Z,14.51
2023-05-08T09:21:09.938Z,15.22
2023-05-08T09:23:37.836Z,15.98
2023-05-08T09:26:05.505Z,17.27
2023-05-08T09:28:32.876Z,18.07
2023-05-08T09:31:01.741Z,16.93
2023-05-08T09:33:30.250Z,18.80
2023-05-08T09:35:58.378Z,22.52
2023-05-08T09:38:40.138Z,28.70
2023-05-08T09:41:16.790Z,33.25
2023-05-08T09:44:00.050Z,34.42
2023-05-08T09:46:28.301Z,28.44
2023-05-08T09:48:58.802Z,24.29
2023-05-08T09:51:30.513Z,23.01
2023-05-08T09:54:00.528Z,25.44
2023-05-08T09:56:40.049Z,23.60
2023-05-08T09:59:30.420Z,21.09
2023-05-08T10:01:58.912Z,18.89
2023-05-08T10:04:37.471Z,18.15
2023-05-08T10:07:05.434Z,18.62
2023-05-08T10:09:47.115Z,19.00
2023-05-08T10:12:18.921Z,19.74
2023-05-08T10:14:46.915Z,19.26
2023-05-08T10:17:25.396Z,18.40
2023-05-08T10:20:00.319Z,18.11
2023-05-08T10:22:29.783Z,17.98
2023-05-08T10:25:01.002Z,18.29
2023-05-08T10:27:45.285Z,17.49
2023-05-08T10:30:17.375Z,16.85
2023-05-08T10:32:52.896Z,15.94
2023-05-08T10:35:20.735Z,15.80
2023-05-08T10:37:49.807Z,15.67
2023-05-08T10:40:21.822Z,15.30
2023-05-08T10:42:50.874Z,15.79
2023-05-08T10:45:18.958Z,17.06
2023-05-08T10:48:08.829Z,17.51
2023-05-08T10:51:01.236Z,16.99
2023-05-08T10:53:54.344Z,16.99
2023-05-08T10:56:29.320Z,17.41
2023-05-08T10:58:59.028Z,18.19
2023-05-08T11:01:27.390Z,18.16
2023-05-08T11:03:56.155Z,17.20
2023-05-08T11:06:49.273Z,17.24
2023-05-08T11:09:43.184Z,17.56
2023-05-08T11:12:31.700Z,17.08
2023-05-08T11:15:06.710Z,17.20
2023-05-08T11:17:34.902Z,16.38
2023-05-08T11:20:07.040Z,15.66
2023-05-08T11:22:37.052Z,15.76
2023-05-08T11:25:10.882Z,15.50
2023-05-08T11:28:00.947Z,16.10
2023-05-08T11:30:38.726Z,16.45
2023-05-08T11:33:06.787Z,16.74
2023-05-08T11:36:06.745Z,16.50
2023-05-08T11:38:38.684Z,16.64
2023-05-08T11:41:22.083Z,16.81
2023-05-08T11:44:22.947Z,16.70
2023-05-08T11:46:53.754Z,16.95
2023-05-08T11:49:28.902Z,17.18
2023-05-08T11:52:00.051Z,16.43
2023-05-08T11:54:31.943Z,16.30
2023-05-08T11:56:59.916Z,16.33
2023-05-08T11:59:27.463Z,16.87
2023-05-08T12:04:26.976Z,17.14
2023-05-08T12:07:01.030Z,16.70
2023-05-08T12:09:28.429Z,17.24
2023-05-08T12:11:59.298Z,17.06
2023-05-08T12:14:26.977Z,17.28
2023-05-08T12:16:54.884Z,17.41
2023-05-08T12:19:22.269Z,17.91
2023-05-08T12:21:50.169Z,18.07
2023-05-08T12:24:24.506Z,17.91
2023-05-08T12:26:56.363Z,17.91
2023-05-08T12:29:24.318Z,17.30
2023-05-08T12:31:53.872Z,17.57
2023-05-08T12:34:21.853Z,17.13
2023-05-08T12:36:51.420Z,16.79
2023-05-08T12:39:19.173Z,16.06
2023-05-08T12:41:52.149Z,15.99
2023-05-08T12:44:26.683Z,15.91
2023-05-08T12:46:57.254Z,16.18
2023-05-08T12:49:32.746Z,16.48
2023-05-08T12:52:13.054Z,16.46
2023-05-08T12:54:48.523Z,16.69
2023-05-08T12:57:18.593Z,16.87
2023-05-08T12:59:46.961Z,16.94
2023-05-08T13:02:19.385Z,16.92
2023-05-08T13:04:47.298Z,16.50
2023-05-08T13:07:14.771Z,16.78
2023-05-08T13:10:04.899Z,16.83
2023-05-08T13:12:32.752Z,16.66
2023-05-08T13:15:01.083Z,16.99
2023-05-08T13:17:28.485Z,17.16
2023-05-08T13:19:56.107Z,17.66
2023-05-08T13:22:26.781Z,17.65
2023-05-08T13:24:54.500Z,17.45
2023-05-08T13:27:22.054Z,16.70
2023-05-08T13:29:49.746Z,16.88
2023-05-08T13:32:17.280Z,16.67
2023-05-08T13:34:50.407Z,16.83
2023-05-08T13:37:18.979Z,16.57
2023-05-08T13:39:46.772Z,16.27
2023-05-08T13:42:13.972Z,16.21
2023-05-08T13:44:41.575Z,16.04
2023-05-08T13:47:10.115Z,16.24
2023-05-08T13:49:37.822Z,15.80
2023-05-08T13:52:05.723Z,15.95
2023-05-08T13:54:33.373Z,16.05
2023-05-08T13:57:02.776Z,16.07
2023-05-08T13:59:31.528Z,16.73
2023-05-08T14:01:58.975Z,16.53
2023-05-08T14:04:26.711Z,16.82
2023-05-08T14:06:54.100Z,16.53
2023-05-08T14:09:21.910Z,16.35
2023-05-08T14:11:49.475Z,16.14
2023-05-08T14:14:17.149Z,16.11
2023-05-08T14:16:44.584Z,15.88
2023-05-08T14:19:12.247Z,15.58
2023-05-08T14:21:40.689Z,15.53
2023-05-08T14:24:09.104Z,15.72
2023-05-08T14:26:36.466Z,15.72
2023-05-08T14:29:05.419Z,15.64
2023-05-08T14:31:32.855Z,15.39
2023-05-08T14:34:00.520Z,15.14
2023-05-08T14:36:27.995Z,14.99
2023-05-08T14:38:55.662Z,14.93
2023-05-08T14:41:23.277Z,14.93
2023-05-08T14:43:50.886Z,14.52
2023-05-08T14:46:18.399Z,14.61
2023-05-08T14:48:46.446Z,14.72
2023-05-08T14:51:14.388Z,14.74
2023-05-08T14:53:42.274Z,15.18
2023-05-08T14:56:09.861Z,15.35
2023-05-08T14:58:37.720Z,15.57
2023-05-08T15:01:05.534Z,15.26
2023-05-08T15:03:33.464Z,15.33
2023-05-08T15:06:01.289Z,15.27
2023-05-08T15:08:28.982Z,15.07
2023-05-08T15:10:56.236Z,15.16
2023-05-08T15:13:23.922Z,15.13
2023-05-08T15:15:51.509Z,15.00
2023-05-08T15:18:19.322Z,15.02
2023-05-08T15:20:46.639Z,14.84
2023-05-08T15:23:14.287Z,14.66
2023-05-08T15:25:41.692Z,14.70
2023-05-08T15:28:09.285Z,14.44
2023-05-08T15:30:36.561Z,14.02
2023-05-08T15:33:04.285Z,13.96
2023-05-08T15:35:31.681Z,14.01
2023-05-08T15:38:04.679Z,13.82
2023-05-08T15:40:32.708Z,13.47
2023-05-08T15:43:01.159Z,13.65
2023-05-08T15:45:28.582Z,13.81
2023-05-08T15:47:56.473Z,14.11
2023-05-08T15:50:24.082Z,14.43
2023-05-08T15:52:52.032Z,14.58
2023-05-08T15:55:20.364Z,14.88
2023-05-08T15:57:48.856Z,15.08
2023-05-08T16:00:16.736Z,15.14
2023-05-08T16:02:44.930Z,14.72
2023-05-08T16:05:12.679Z,14.51
2023-05-08T16:07:40.474Z,14.29
2023-05-08T16:10:08.944Z,14.13
2023-05-08T16:12:36.643Z,14.02
2023-05-08T16:15:04.456Z,14.10
2023-05-08T16:17:33.611Z,14.14
2023-05-08T16:20:01.839Z,14.04
2023-05-08T16:22:30.954Z,13.92
2023-05-08T16:24:58.792Z,13.74
2023-05-08T16:27:27.908Z,13.61
2023-05-08T16:29:55.487Z,13.65
2023-05-08T16:32:23.547Z,13.68
2023-05-08T16:34:51.264Z,13.71
2023-05-08T16:37:19.031Z,13.79
2023-05-08T16:39:46.449Z,13.73
2023-05-08T16:42:14.105Z,13.62
2023-05-08T16:44:42.060Z,13.67
2023-05-08T16:47:10.854Z,13.63
2023-05-08T16:49:38.636Z,13.84
2023-05-08T16:52:06.804Z,13.70
2023-05-08T16:54:34.195Z,13.79
2023-05-08T16:57:02.202Z,13.74
2023-05-08T16:59:30.119Z,13.53
2023-05-08T17:01:58.116Z,13.59
2023-05-08T17:04:26.173Z,13.59
2023-05-08T17:06:54.216Z,13.37
2023-05-08T17:09:21.689Z,13.39
2023-05-08T17:11:49.369Z,13.23
2023-05-08T17:14:22.825Z,13.06
2023-05-08T17:16:50.431Z,13.00
2023-05-08T17:19:17.728Z,12.90
2023-05-08T17:21:45.469Z,12.79
2023-05-08T17:24:12.799Z,12.62
2023-05-08T17:26:40.608Z,12.84
2023-05-08T17:29:08.085Z,12.96
2023-05-08T17:31:35.685Z,13.28
2023-05-08T17:34:09.930Z,13.34
2023-05-08T17:36:37.476Z,13.31
2023-05-08T17:39:05.052Z,13.21
2023-05-08T17:41:32.633Z,13.51
2023-05-08T17:43:59.890Z,13.94
2023-05-08T17:46:27.606Z,13.76
2023-05-08T17:48:54.897Z,13.56
2023-05-08T17:51:22.516Z,13.31
2023-05-08T17:53:49.830Z,13.25
2023-05-08T17:56:20.624Z,13.07
2023-05-08T17:58:48.015Z,12.90
2023-05-08T18:01:15.928Z,12.83
2023-05-08T18:03:45.087Z,12.77
2023-05-08T18:06:17.947Z,12.62
2023-05-08T18:08:46.780Z,12.38
2023-05-08T18:11:26.225Z,12.23
2023-05-08T18:13:54.781Z,12.07
2023-05-08T18:16:23.171Z,12.00
2023-05-08T18:18:50.951Z,11.89
2023-05-08T18:21:18.736Z,11.70
2023-05-08T18:23:46.176Z,11.70
2023-05-08T18:26:15.896Z,11.65
2023-05-08T18:28:47.119Z,11.56
2023-05-08T18:31:16.499Z,11.48
2023-05-08T18:33:44.041Z,11.39
2023-05-08T18:36:16.687Z,11.36
2023-05-08T18:38:44.087Z,11.33
2023-05-08T18:41:11.729Z,11.24
2023-05-08T18:43:39.180Z,11.26
2023-05-08T18:46:14.375Z,11.24
2023-05-08T18:48:43.744Z,11.18
2023-05-08T18:51:11.484Z,11.13
2023-05-08T18:53:39.450Z,11.16
2023-05-08T18:56:07.314Z,11.17
2023-05-08T18:58:34.577Z,11.20
2023-05-08T19:01:02.319Z,11.23
2023-05-08T19:03:29.693Z,11.09
2023-05-08T19:05:57.669Z,11.17
2023-05-08T19:08:25.281Z,11.10
2023-05-08T19:10:53.418Z,10.94
2023-05-08T19:13:20.773Z,10.95
2023-05-08T19:15:48.460Z,10.92
2023-05-08T19:18:15.839Z,10.90
2023-05-08T19:20:43.413Z,10.87
2023-05-08T19:23:10.751Z,10.73
2023-05-08T19:25:38.436Z,10.65
2023-05-08T19:28:05.855Z,10.56
2023-05-08T19:30:33.390Z,10.46
2023-05-08T19:33:00.660Z,10.45
2023-05-08T19:35:28.281Z,10.39
2023-05-08T19:37:55.732Z,10.42
2023-05-08T19:40:23.284Z,10.36
2023-05-08T19:42:50.715Z,10.30
2023-05-08T19:45:18.353Z,10.30
2023-05-08T19:47:51.925Z,10.20
2023-05-08T19:50:19.840Z,10.09
2023-05-08T19:52:48.806Z,10.07
2023-05-08T19:55:19.709Z,10.04
2023-05-08T19:57:47.026Z,10.00
2023-05-08T20:00:15.088Z,9.99
2023-05-08T20:02:42.748Z,9.92
2023-05-08T20:07:40.870Z,9.82
2023-05-08T20:10:09.163Z,9.80
2023-05-08T20:12:36.835Z,9.70
2023-05-08T20:15:04.963Z,9.74
2023-05-08T20:17:32.481Z,9.69
2023-05-08T20:20:00.277Z,9.67
2023-05-08T20:22:27.668Z,9.63
2023-05-08T20:24:55.388Z,9.62
2023-05-08T20:27:22.841Z,9.54
2023-05-08T20:29:50.611Z,9.47
2023-05-08T20:32:19.256Z,9.48
2023-05-08T20:34:47.112Z,9.43
2023-05-08T20:37:16.121Z,9.36
2023-05-08T20:39:45.134Z,9.31
2023-05-08T20:42:12.778Z,9.28
2023-05-08T20:44:40.577Z,9.18
2023-05-08T20:47:07.913Z,9.13
2023-05-08T20:49:35.596Z,9.08
2023-05-08T20:52:03.123Z,8.99
2023-05-08T20:54:39.603Z,9.01
2023-05-08T20:57:06.836Z,8.96
2023-05-08T20:59:34.401Z,8.95
2023-05-08T21:02:01.790Z,8.98
2023-05-08T21:04:29.707Z,8.89
2023-05-08T21:06:57.867Z,8.80
2023-05-08T21:09:25.660Z,8.79
2023-05-08T21:11:52.956Z,8.80
2023-05-08T21:14:29.619Z,8.79
2023-05-08T21:16:56.998Z,8.77
2023-05-08T21:19:24.701Z,8.73
2023-05-08T21:21:52.054Z,8.67
2023-05-08T21:24:19.608Z,8.66
2023-05-08T21:26:46.832Z,8.61
2023-05-08T21:29:14.431Z,8.61
2023-05-08T21:31:42.124Z,8.62
2023-05-08T21:34:09.748Z,8.61
2023-05-08T21:36:37.023Z,8.57
2023-05-08T21:39:04.891Z,8.50
2023-05-08T21:41:33.148Z,8.55
2023-05-08T21:44:00.833Z,8.51
2023-05-08T21:46:28.219Z,8.49
2023-05-08T21:48:55.887Z,8.48
2023-05-08T21:51:23.220Z,8.42
2023-05-08T21:53:51.813Z,8.48
2023-05-08T21:56:19.187Z,8.52
2023-05-08T21:58:46.853Z,8.52
2023-05-08T22:01:14.085Z,8.53
2023-05-08T22:03:44.102Z,8.61
2023-05-08T22:06:11.472Z,8.57
2023-05-08T22:08:39.056Z,8.54
2023-05-08T22:11:06.302Z,8.53
2023-05-08T22:13:33.904Z,8.44
2023-05-08T22:16:01.182Z,8.42
2023-05-08T22:18:28.806Z,8.34
2023-05-08T22:20:56.599Z,8.28
2023-05-08T22:23:24.221Z,8.28
2023-05-08T22:25:52.100Z,8.16
2023-05-08T22:28:19.795Z,8.05
2023-05-08T22:30:47.051Z,7.96
2023-05-08T22:33:14.629Z,7.89
2023-05-08T22:35:41.891Z,7.77
2023-05-08T22:38:09.491Z,7.77
2023-05-08T22:40:36.873Z,7.63
2023-05-08T22:43:04.662Z,7.64
2023-05-08T22:45:32.928Z,7.63
2023-05-08T22:48:01.036Z,7.61
2023-05-08T22:50:28.660Z,7.57
2023-05-08T22:52:56.200Z,7.55
2023-05-08T22:55:23.534Z,7.50
2023-05-08T22:57:51.271Z,7.49
2023-05-08T23:00:18.905Z,7.50
2023-05-08T23:02:46.613Z,7.52
2023-05-08T23:05:14.785Z,7.48
2023-05-08T23:07:42.644Z,7.50
2023-05-08T23:10:10.762Z,7.56
2023-05-08T23:12:38.329Z,7.51
2023-05-08T23:15:06.605Z,7.46
2023-05-08T23:17:34.411Z,7.34
2023-05-08T23:20:01.879Z,7.39
2023-05-08T23:22:29.603Z,7.47
2023-05-08T23:24:56.990Z,7.42
2023-05-08T23:27:25.825Z,7.36
2023-05-08T23:29:53.156Z,7.34
2023-05-08T23:32:20.833Z,7.27
2023-05-08T23:34:48.128Z,7.21
2023-05-08T23:37:15.718Z,7.17
2023-05-08T23:39:43.046Z,7.10
2023-05-08T23:42:10.686Z,7.08
2023-05-08T23:44:37.993Z,7.00
2023-05-08T23:47:05.686Z,6.96
2023-05-08T23:49:33.060Z,6.96
2023-05-08T23:52:00.696Z,6.87
2023-05-08T23:54:27.941Z,6.86
2023-05-08T23:56:56.566Z,6.80
2023-05-08T23:59:23.812Z,6.76
